首页
METAR-TAF:

METAR-TAF

机场 :

贾特拉帕蒂·希瓦吉国际机场

孟买, 印度

纬度: 19-07N, 经度: 072-51E, 海拔: 8米

当前天气观测

该预报发布于31分钟前的15:00 UTC
风速14节,风向西转西南
温度 27°C
湿度 89%
气压 1003 hPa
能見度: 2500
散云层高于1200英尺
散云层高于1800英尺
阴天层高于8000英尺
附近有阵雨

METAR: VABB 161500Z 25014KT 2500 VCSH SCT012 SCT018 OVC080 27/25 Q1003 TEMPO 1500 SHRA

时间: 21:01 (15:31 UTC)

预报

该预报发布于1小时和31分钟前的14:00 UTC
预报有效从16日的 15点(UTC)到 16日的 24点(UTC)
风速12节,风向西
能見度: 3000
少量云层高于1200英尺
散云层高于1800英尺
少量云层高于2500英尺, 塔状积云.
阴天层高于8000英尺
成为
从 16日的 17点(UTC)到 16日的 19点(UTC)
能見度: 2000
小雨, 霾
短暂存在
从 16日的 15点(UTC)到 16日的 24点(UTC)
能見度: 1500
散云层高于1200英尺
少量云层高于2500英尺, 塔状积云.
阴天层高于8000英尺
小阵雨, 雨

TAF: VABB 161400Z 1615/1624 27012KT 3000 HZ FEW012 SCT018 FEW025TCU OVC080 BECMG 1617/1619 2000 -RA HZ TEMPO 1615/1624 1500 -SHRA RA SCT012 FEW025TCU OVC080

超过4000个机场的气象观测和天气预报(METAR&TAF报告)。

可查询的气象台以黄色和红色小点在地图上表示。

将鼠标移到小点上方,可查看气象台名称。

然后点击查看天气观测和预报。

如需切换地图:点击带黑十字的绿色按钮放大地图;点击带横线的绿色按钮缩小地图;或者点击绿色箭头查看邻近地区的地图。


METAR-TAF: